Time;durP1;ratioP1;P1;durP2;ratioP2;P2;SDS_P1;SDS_P2;PMS_P1;PMS_P2;Temp;Humidity;BMP_temperature;BMP_pressure;BME280_temperature;BME280_humidity;BME280_pressure;Samples;Min_cycle;Max_cycle;Signal;HPM_P1;HPM_P2
2022/07/09 00:00:43;;;;;;;2.03;0.88;;;25.50;44.50;;;;;;5074286;28;20024;-70
2022/07/09 00:03:09;;;;;;;3.67;1.00;;;25.50;44.40;;;;;;5074720;28;20444;-70
2022/07/09 00:05:34;;;;;;;3.25;1.00;;;25.50;44.30;;;;;;5074390;28;20036;-70
2022/07/09 00:08:00;;;;;;;4.05;1.05;;;25.50;44.40;;;;;;5074323;28;20373;-71
2022/07/09 00:10:26;;;;;;;2.22;0.90;;;25.30;44.60;;;;;;5074219;28;20028;-70
2022/07/09 00:12:51;;;;;;;2.83;0.82;;;25.30;44.50;;;;;;5074227;28;20059;-70
2022/07/09 00:15:17;;;;;;;2.08;0.80;;;25.20;44.80;;;;;;5073895;28;20509;-69
2022/07/09 00:17:43;;;;;;;4.28;1.00;;;25.20;45.20;;;;;;5074255;28;20099;-70
2022/07/09 00:20:09;;;;;;;4.05;1.10;;;25.10;45.20;;;;;;5074180;28;20020;-70
2022/07/09 00:22:35;;;;;;;1.65;0.70;;;25.10;44.70;;;;;;5073945;28;20028;-71
2022/07/09 00:25:01;;;;;;;2.70;0.90;;;25.10;45.30;;;;;;5073820;28;20040;-70
2022/07/09 00:27:27;;;;;;;2.75;1.00;;;25.20;45.50;;;;;;5073720;28;20032;-71
2022/07/09 00:29:53;;;;;;;2.20;0.98;;;25.20;45.50;;;;;;5073931;28;20027;-70
2022/07/09 00:32:19;;;;;;;3.55;1.10;;;25.10;45.50;;;;;;5074420;28;20033;-71
2022/07/09 00:34:45;;;;;;;2.22;0.90;;;25.10;45.60;;;;;;5073862;28;20024;-70
2022/07/09 00:37:11;;;;;;;3.00;0.93;;;25.10;45.70;;;;;;5073789;28;20096;-68
2022/07/09 00:39:37;;;;;;;2.30;0.93;;;25.00;45.90;;;;;;5072204;28;20025;-70
2022/07/09 00:42:08;;;;;;;2.00;0.90;;;25.10;45.90;;;;;;5073683;28;20028;-70
2022/07/09 00:44:34;;;;;;;1.83;0.70;;;25.00;44.30;;;;;;5073622;28;20116;-70
2022/07/09 00:47:00;;;;;;;8.18;1.08;;;25.00;46.00;;;;;;5072301;28;20457;-71
2022/07/09 00:49:28;;;;;;;1.98;0.90;;;25.00;45.90;;;;;;5073762;28;20027;-70
2022/07/09 00:51:55;;;;;;;4.15;1.05;;;25.00;46.10;;;;;;5073624;28;20028;-70
2022/07/09 00:54:22;;;;;;;2.13;0.80;;;25.00;46.20;;;;;;5073529;28;20028;-72
2022/07/09 00:56:48;;;;;;;1.67;0.90;;;24.90;46.20;;;;;;5073447;28;20024;-70
2022/07/09 00:59:15;;;;;;;3.03;1.10;;;24.90;46.20;;;;;;5073621;28;20029;-71
2022/07/09 01:01:41;;;;;;;2.42;0.80;;;24.90;46.50;;;;;;5073458;28;20071;-70
2022/07/09 01:04:07;;;;;;;2.45;1.02;;;24.90;46.40;;;;;;5073422;28;20428;-71
2022/07/09 01:06:36;;;;;;;2.17;0.93;;;24.90;46.30;;;;;;5073453;28;20028;-71
2022/07/09 01:09:02;;;;;;;2.05;0.70;;;24.70;46.70;;;;;;5072046;28;20024;-70
2022/07/09 01:11:29;;;;;;;1.13;0.70;;;24.70;46.90;;;;;;5073541;28;20112;-71
2022/07/09 01:13:55;;;;;;;2.97;0.85;;;24.60;47.10;;;;;;5073300;28;20032;-70
2022/07/09 01:16:22;;;;;;;3.28;0.73;;;24.60;46.90;;;;;;5073141;28;20049;-72
2022/07/09 01:18:48;;;;;;;2.28;0.65;;;24.60;46.80;;;;;;5073137;28;20115;-72
2022/07/09 01:21:14;;;;;;;2.97;1.10;;;24.40;47.00;;;;;;5073436;28;20143;-71
2022/07/09 01:23:40;;;;;;;1.95;0.80;;;24.50;47.30;;;;;;5073480;28;20407;-71
2022/07/09 01:26:07;;;;;;;3.60;0.70;;;24.50;47.20;;;;;;5071795;28;20033;-71
2022/07/09 01:28:33;;;;;;;5.75;1.08;;;24.50;47.10;;;;;;5073208;28;20109;-70
2022/07/09 01:30:59;;;;;;;2.85;0.70;;;24.50;47.20;;;;;;5073310;28;20052;-71
2022/07/09 01:33:25;;;;;;;1.52;0.82;;;24.30;47.30;;;;;;5073292;28;20444;-74
2022/07/09 01:35:51;;;;;;;2.97;0.85;;;24.30;47.80;;;;;;5055197;28;20025;-70
2022/07/09 01:38:17;;;;;;;2.15;0.80;;;24.30;47.70;;;;;;5071793;28;20031;-72
2022/07/09 01:40:43;;;;;;;2.55;0.90;;;24.30;47.60;;;;;;5072998;28;20052;-72
2022/07/09 01:43:08;;;;;;;3.13;0.80;;;24.30;47.60;;;;;;5073176;28;20024;-70
2022/07/09 01:45:34;;;;;;;2.65;0.80;;;24.20;47.60;;;;;;5073014;28;20082;-71
2022/07/09 01:48:00;;;;;;;1.83;0.95;;;24.20;47.80;;;;;;5073307;28;20381;-70
2022/07/09 01:50:26;;;;;;;3.17;0.85;;;24.20;47.90;;;;;;5073259;28;20531;-72
2022/07/09 01:52:51;;;;;;;2.65;0.70;;;24.20;47.80;;;;;;5075085;28;20013;-71
2022/07/09 01:55:17;;;;;;;2.35;0.63;;;24.20;47.80;;;;;;5075664;28;20063;-72
2022/07/09 01:57:43;;;;;;;2.38;0.80;;;24.20;47.80;;;;;;5075731;28;20469;-71
2022/07/09 02:00:09;;;;;;;1.20;0.80;;;24.20;47.70;;;;;;5077218;28;20020;-70
2022/07/09 02:02:35;;;;;;;2.55;0.80;;;24.20;47.60;;;;;;5077125;28;20064;-71
2022/07/09 02:05:00;;;;;;;1.50;0.70;;;24.20;48.00;;;;;;5076862;28;20056;-70
2022/07/09 02:07:26;;;;;;;6.35;0.90;;;24.10;47.90;;;;;;5075551;28;20115;-72
2022/07/09 02:09:52;;;;;;;2.03;0.90;;;24.20;48.10;;;;;;5076942;28;20021;-71
2022/07/09 02:12:18;;;;;;;2.78;0.80;;;24.20;48.10;;;;;;5077090;28;20032;-73
2022/07/09 02:14:44;;;;;;;3.53;0.80;;;24.10;48.20;;;;;;5076620;28;20409;-72
2022/07/09 02:17:10;;;;;;;0.70;0.60;;;24.20;48.10;;;;;;5075341;28;20523;-71
2022/07/09 02:19:36;;;;;;;2.15;0.80;;;24.20;48.20;;;;;;5076757;28;20013;-72
2022/07/09 02:22:02;;;;;;;0.85;0.70;;;24.10;48.10;;;;;;5076528;28;20024;-71
2022/07/09 02:24:28;;;;;;;6.32;0.60;;;24.00;48.20;;;;;;5076267;28;20028;-71
2022/07/09 02:26:54;;;;;;;2.65;0.80;;;24.10;47.10;;;;;;5076423;28;20028;-71
2022/07/09 02:29:20;;;;;;;1.75;0.70;;;24.00;48.50;;;;;;5076543;28;20016;-71
2022/07/09 02:31:46;;;;;;;3.20;1.08;;;24.10;48.30;;;;;;5076460;28;20036;-71
2022/07/09 02:34:12;;;;;;;1.17;0.73;;;24.10;48.50;;;;;;5076357;28;20462;-72
2022/07/09 02:36:37;;;;;;;1.52;0.60;;;24.10;48.50;;;;;;5074789;28;20086;-72
2022/07/09 02:39:03;;;;;;;3.70;0.70;;;24.10;48.50;;;;;;5076076;28;20051;-71
2022/07/09 02:41:29;;;;;;;3.40;1.05;;;24.10;48.50;;;;;;5076346;28;20031;-70
2022/07/09 02:43:54;;;;;;;1.27;0.80;;;24.00;48.50;;;;;;5076140;28;20032;-70
2022/07/09 02:46:20;;;;;;;3.38;1.15;;;24.00;48.70;;;;;;5075985;28;20107;-70
2022/07/09 02:48:46;;;;;;;5.32;1.05;;;24.00;48.60;;;;;;5075865;28;20031;-71
2022/07/09 02:51:11;;;;;;;1.98;0.75;;;24.00;48.60;;;;;;5075770;28;20025;-72
2022/07/09 02:53:37;;;;;;;5.63;0.80;;;23.90;48.60;;;;;;5075977;28;20429;-71
2022/07/09 02:56:03;;;;;;;2.35;0.73;;;24.00;48.70;;;;;;5076476;28;20493;-71
2022/07/09 02:58:30;;;;;;;3.72;0.70;;;24.00;48.30;;;;;;5079426;28;20032;-71
2022/07/09 03:00:56;;;;;;;4.22;1.00;;;24.00;48.80;;;;;;5078260;28;20075;-71
2022/07/09 03:03:23;;;;;;;2.35;0.80;;;23.90;48.80;;;;;;5075063;28;20471;-71
2022/07/09 03:05:49;;;;;;;3.63;0.85;;;23.90;48.70;;;;;;5074267;28;20032;-71
2022/07/09 03:08:15;;;;;;;2.65;0.80;;;23.90;49.00;;;;;;5075909;28;20086;-71
2022/07/09 03:10:40;;;;;;;5.00;1.80;;;23.90;48.90;;;;;;5075586;28;20051;-71
2022/07/09 03:13:06;;;;;;;4.45;0.98;;;23.80;48.90;;;;;;5075510;28;20021;-73
2022/07/09 03:15:32;;;;;;;3.63;1.20;;;23.90;49.10;;;;;;5073830;28;20052;-71
2022/07/09 03:17:57;;;;;;;5.50;1.10;;;23.80;49.10;;;;;;5075770;28;20048;-72
2022/07/09 03:20:23;;;;;;;2.65;1.00;;;23.80;49.10;;;;;;5074342;28;20075;-71
2022/07/09 03:22:49;;;;;;;3.10;0.88;;;23.80;49.00;;;;;;5075248;28;20453;-72
2022/07/09 03:25:14;;;;;;;1.48;0.70;;;23.80;49.80;;;;;;5075391;28;20036;-71
2022/07/09 03:27:40;;;;;;;3.92;0.85;;;23.80;49.20;;;;;;5075402;28;20024;-72
2022/07/09 03:30:06;;;;;;;2.53;0.80;;;23.80;49.20;;;;;;5075145;28;20058;-71
2022/07/09 03:32:32;;;;;;;2.65;0.80;;;23.80;49.00;;;;;;5075344;28;20027;-73
2022/07/09 03:34:58;;;;;;;2.47;0.90;;;23.70;49.10;;;;;;5075033;28;20028;-71
2022/07/09 03:37:24;;;;;;;2.30;0.73;;;23.80;49.30;;;;;;5074898;28;20047;-71
2022/07/09 03:39:49;;;;;;;3.60;0.90;;;23.70;49.30;;;;;;5074651;28;20028;-70
2022/07/09 03:42:15;;;;;;;2.03;0.85;;;23.80;49.50;;;;;;5073358;28;20465;-70
2022/07/09 03:44:41;;;;;;;1.70;0.77;;;23.70;49.30;;;;;;5074671;28;20163;-70
2022/07/09 03:47:07;;;;;;;5.88;1.00;;;23.70;49.50;;;;;;5074815;28;20020;-69
2022/07/09 03:49:33;;;;;;;1.98;0.95;;;23.70;49.50;;;;;;5073421;28;20056;-70
2022/07/09 03:51:59;;;;;;;1.55;0.68;;;23.60;49.50;;;;;;5074693;28;20025;-70
2022/07/09 03:54:26;;;;;;;3.17;0.90;;;23.60;49.60;;;;;;5074728;28;20024;-72
2022/07/09 03:56:52;;;;;;;2.58;0.90;;;23.60;49.70;;;;;;5075186;28;20035;-71
2022/07/09 03:59:19;;;;;;;4.88;0.90;;;23.60;49.90;;;;;;5074503;28;20029;-70
2022/07/09 04:01:44;;;;;;;2.78;0.80;;;23.60;49.70;;;;;;5074469;28;20529;-71
2022/07/09 04:04:10;;;;;;;2.17;0.70;;;23.50;49.80;;;;;;5072820;28;20116;-71
2022/07/09 04:06:36;;;;;;;1.25;0.60;;;23.60;50.10;;;;;;5074019;28;20021;-70
2022/07/09 04:09:04;;;;;;;3.85;0.90;;;23.50;50.10;;;;;;5074324;28;20032;-71
2022/07/09 04:11:33;;;;;;;3.88;0.75;;;23.50;49.90;;;;;;5074510;28;20447;-70
2022/07/09 04:14:00;;;;;;;3.08;1.23;;;23.50;50.30;;;;;;5073847;28;20374;-70
2022/07/09 04:16:26;;;;;;;3.92;1.00;;;23.50;50.10;;;;;;5072924;28;20374;-70
2022/07/09 04:18:51;;;;;;;2.65;1.00;;;23.50;50.10;;;;;;5072950;28;20040;-70
2022/07/09 04:21:17;;;;;;;3.15;1.20;;;23.60;50.00;;;;;;5073822;28;20377;-71
2022/07/09 04:23:43;;;;;;;1.95;1.00;;;23.50;50.10;;;;;;5073849;28;20466;-70
2022/07/09 04:26:09;;;;;;;2.30;1.05;;;23.50;50.10;;;;;;5073688;28;20473;-70
2022/07/09 04:28:38;;;;;;;5.47;1.05;;;23.60;50.20;;;;;;5073675;28;20052;-71
2022/07/09 04:31:04;;;;;;;3.22;1.17;;;23.50;50.20;;;;;;5072327;28;20493;-71
2022/07/09 04:33:29;;;;;;;5.70;1.23;;;23.50;50.20;;;;;;5073693;28;20492;-70
2022/07/09 04:35:55;;;;;;;2.58;0.90;;;23.60;50.40;;;;;;5073587;28;20052;-70
2022/07/09 04:38:21;;;;;;;3.28;1.00;;;23.60;50.20;;;;;;5073795;28;20021;-71
2022/07/09 04:40:47;;;;;;;4.38;1.00;;;23.50;50.20;;;;;;5073713;28;20223;-72
2022/07/09 04:43:13;;;;;;;2.00;0.70;;;23.50;50.20;;;;;;5073798;28;20127;-72
2022/07/09 04:45:38;;;;;;;3.08;0.80;;;23.50;50.30;;;;;;5073374;28;20525;-73
2022/07/09 04:48:04;;;;;;;2.50;0.70;;;23.50;50.40;;;;;;5073499;28;20021;-72
2022/07/09 04:50:30;;;;;;;6.10;1.00;;;23.60;50.40;;;;;;5073592;28;20086;-72
2022/07/09 04:52:56;;;;;;;4.78;1.00;;;23.60;50.40;;;;;;5072059;28;20473;-72
2022/07/09 04:55:22;;;;;;;3.70;1.00;;;23.60;50.60;;;;;;5073419;28;20368;-72
2022/07/09 04:57:48;;;;;;;2.38;1.20;;;23.50;50.50;;;;;;5073350;28;20067;-72
2022/07/09 05:00:15;;;;;;;4.75;1.75;;;23.50;50.70;;;;;;5073442;28;20024;-72
2022/07/09 05:02:42;;;;;;;4.22;1.77;;;23.50;50.70;;;;;;5073561;28;20029;-73
2022/07/09 05:05:08;;;;;;;5.60;1.60;;;23.60;50.70;;;;;;5072812;28;20036;-71
2022/07/09 05:07:34;;;;;;;7.72;2.50;;;23.60;50.60;;;;;;5071894;28;20029;-71
2022/07/09 05:10:01;;;;;;;7.38;2.85;;;23.60;50.60;;;;;;5073243;28;20017;-74
2022/07/09 05:12:28;;;;;;;7.22;3.25;;;23.60;50.80;;;;;;5073214;28;20107;-72
2022/07/09 05:14:55;;;;;;;7.97;3.60;;;23.70;50.90;;;;;;5073993;28;20020;-74
2022/07/09 05:17:21;;;;;;;7.80;3.63;;;23.70;50.70;;;;;;5074212;28;20082;-73
2022/07/09 05:19:46;;;;;;;5.72;2.53;;;24.00;51.00;;;;;;5073761;28;20029;-73
2022/07/09 05:22:12;;;;;;;8.00;2.33;;;24.10;49.90;;;;;;5072939;28;20450;-72
2022/07/09 05:24:38;;;;;;;5.60;2.10;;;24.40;49.90;;;;;;5072801;28;20020;-71
2022/07/09 05:27:04;;;;;;;6.38;2.20;;;24.60;49.50;;;;;;5072542;28;20032;-72
2022/07/09 05:29:30;;;;;;;4.55;1.58;;;25.00;48.70;;;;;;5072892;28;20020;-72
2022/07/09 05:31:57;;;;;;;2.53;1.10;;;25.30;48.40;;;;;;5072714;28;20109;-73
2022/07/09 05:34:23;;;;;;;3.95;1.10;;;25.70;47.60;;;;;;5072914;28;20016;-72
2022/07/09 05:36:51;;;;;;;3.90;1.20;;;26.10;47.00;;;;;;5072989;28;20444;-71
2022/07/09 05:39:17;;;;;;;3.08;1.20;;;26.30;46.10;;;;;;5072946;28;20045;-73
2022/07/09 05:41:43;;;;;;;6.05;1.33;;;26.60;46.10;;;;;;5054966;28;20028;-72
2022/07/09 05:44:10;;;;;;;7.57;2.67;;;26.80;45.50;;;;;;5055059;28;20111;-70
2022/07/09 05:46:35;;;;;;;6.10;1.20;;;27.10;44.90;;;;;;5072810;28;20036;-72
2022/07/09 05:49:04;;;;;;;2.58;1.08;;;27.40;44.60;;;;;;5072872;28;20021;-70
2022/07/09 05:51:30;;;;;;;4.97;1.45;;;27.70;44.60;;;;;;5072952;28;20052;-72
2022/07/09 05:53:56;;;;;;;9.38;1.48;;;28.00;43.70;;;;;;5072946;28;20082;-70
2022/07/09 05:56:22;;;;;;;5.70;1.35;;;28.20;43.60;;;;;;5072784;28;20050;-71
2022/07/09 05:58:47;;;;;;;6.10;1.40;;;28.70;43.30;;;;;;5072460;28;20032;-70
2022/07/09 06:01:13;;;;;;;6.68;1.58;;;29.20;42.60;;;;;;5072324;28;20017;-70
2022/07/09 06:03:40;;;;;;;5.22;1.20;;;29.40;44.30;;;;;;5072397;28;20056;-72
2022/07/09 06:06:06;;;;;;;6.07;1.40;;;29.70;42.00;;;;;;5054363;28;20040;-70
2022/07/09 06:08:33;;;;;;;4.65;1.17;;;29.70;41.20;;;;;;5072549;28;20024;-69
2022/07/09 06:11:00;;;;;;;3.40;1.15;;;29.80;41.10;;;;;;5072616;28;20024;-71
2022/07/09 06:13:25;;;;;;;2.15;0.98;;;30.00;41.00;;;;;;5072352;28;20024;-72
2022/07/09 06:15:52;;;;;;;3.90;1.55;;;30.30;40.30;;;;;;5060497;28;20059;-71
2022/07/09 06:18:18;;;;;;;2.80;1.20;;;30.00;40.50;;;;;;5072383;28;20070;-71
2022/07/09 06:20:44;;;;;;;3.70;1.30;;;30.20;40.30;;;;;;5072338;28;20028;-70
2022/07/09 06:23:10;;;;;;;5.13;1.40;;;30.20;40.20;;;;;;5072410;28;20028;-71
2022/07/09 06:25:37;;;;;;;6.05;1.27;;;30.30;40.10;;;;;;5071904;28;20097;-72
2022/07/09 06:28:05;;;;;;;4.43;1.27;;;30.30;40.10;;;;;;5072280;28;20076;-71
2022/07/09 06:30:31;;;;;;;8.75;1.80;;;30.40;39.90;;;;;;5070732;28;20386;-70
2022/07/09 06:32:57;;;;;;;13.80;1.58;;;30.50;39.90;;;;;;5072045;28;20032;-71
2022/07/09 06:35:23;;;;;;;10.20;2.63;;;30.50;40.00;;;;;;5072158;28;20033;-73
2022/07/09 06:37:49;;;;;;;6.63;1.45;;;30.70;39.70;;;;;;5072412;28;20025;-70
2022/07/09 06:40:15;;;;;;;7.75;1.77;;;30.80;39.30;;;;;;5075516;28;20525;-71
2022/07/09 06:42:41;;;;;;;2.95;1.20;;;30.90;39.40;;;;;;5075777;28;20489;-72
2022/07/09 06:45:07;;;;;;;2.67;1.13;;;30.90;39.20;;;;;;5074461;28;20034;-72
2022/07/09 06:47:33;;;;;;;5.97;1.58;;;31.00;39.10;;;;;;5075798;28;20058;-71
2022/07/09 06:49:59;;;;;;;4.53;1.30;;;31.20;39.10;;;;;;5075598;28;20108;-73
2022/07/09 06:52:25;;;;;;;6.28;2.10;;;31.30;38.80;;;;;;5075678;28;20400;-70
2022/07/09 06:54:50;;;;;;;9.77;1.90;;;31.30;38.60;;;;;;5075366;28;20016;-73
2022/07/09 06:57:17;;;;;;;5.93;1.50;;;31.40;38.30;;;;;;5073968;28;20031;-72
2022/07/09 06:59:45;;;;;;;3.72;1.20;;;31.30;38.10;;;;;;5073997;28;20052;-71
2022/07/09 07:02:11;;;;;;;2.53;1.00;;;31.10;38.20;;;;;;5075228;28;20481;-70
2022/07/09 07:04:36;;;;;;;3.78;1.30;;;31.10;38.10;;;;;;5075191;28;20039;-71
2022/07/09 07:07:02;;;;;;;8.40;1.83;;;31.00;38.30;;;;;;5075588;28;20089;-72
2022/07/09 07:09:28;;;;;;;6.32;1.42;;;30.90;38.30;;;;;;5075599;28;20016;-75
2022/07/09 07:11:54;;;;;;;4.28;1.15;;;30.80;38.70;;;;;;5075483;28;20477;-72
2022/07/09 07:14:20;;;;;;;3.92;1.17;;;30.70;38.30;;;;;;5075094;28;20031;-70
2022/07/09 07:16:46;;;;;;;5.88;1.15;;;30.70;38.60;;;;;;5075222;28;20137;-71
2022/07/09 07:19:12;;;;;;;8.45;1.20;;;30.50;38.50;;;;;;5075369;28;20020;-72
2022/07/09 07:21:38;;;;;;;3.20;1.17;;;30.50;38.40;;;;;;5075053;28;20032;-71
2022/07/09 07:24:05;;;;;;;2.65;1.10;;;30.60;38.20;;;;;;5075046;28;20108;-71
2022/07/09 07:26:32;;;;;;;5.53;1.10;;;30.50;38.40;;;;;;5074740;28;20079;-71
2022/07/09 07:28:58;;;;;;;4.40;1.10;;;30.50;38.00;;;;;;5074762;28;20067;-71
2022/07/09 07:31:24;;;;;;;6.93;1.20;;;30.70;38.30;;;;;;5074787;28;20025;-71
2022/07/09 07:33:50;;;;;;;4.30;1.10;;;30.90;38.30;;;;;;5075028;28;20012;-72
2022/07/09 07:36:16;;;;;;;7.03;1.02;;;31.00;38.00;;;;;;5074412;28;20429;-72
2022/07/09 07:38:42;;;;;;;3.92;1.20;;;31.00;37.60;;;;;;5074831;28;20027;-70
2022/07/09 07:41:08;;;;;;;5.32;1.40;;;31.10;37.70;;;;;;5074386;28;20094;-71
2022/07/09 07:43:33;;;;;;;5.10;1.17;;;31.10;37.60;;;;;;5074699;28;20111;-71
2022/07/09 07:45:59;;;;;;;9.18;1.65;;;30.90;37.40;;;;;;5074317;28;20032;-71
2022/07/09 07:48:27;;;;;;;4.47;1.10;;;30.80;37.50;;;;;;5074266;28;20020;-71
2022/07/09 07:50:54;;;;;;;4.93;1.20;;;30.80;37.70;;;;;;5075130;28;20420;-70
2022/07/09 07:53:20;;;;;;;3.05;1.15;;;30.70;37.70;;;;;;5073243;28;20074;-72
2022/07/09 07:55:46;;;;;;;5.60;1.10;;;30.70;38.00;;;;;;5074270;28;20032;-71
2022/07/09 07:58:13;;;;;;;4.22;1.00;;;30.70;38.10;;;;;;5074800;28;20027;-70
2022/07/09 08:00:39;;;;;;;3.45;1.20;;;30.70;38.20;;;;;;5074069;28;20032;-72
2022/07/09 08:03:04;;;;;;;2.22;1.00;;;30.60;38.00;;;;;;5074359;28;20013;-73
2022/07/09 08:05:30;;;;;;;2.90;1.02;;;30.70;38.00;;;;;;5074166;28;20032;-72
2022/07/09 08:07:56;;;;;;;4.32;1.30;;;30.60;37.70;;;;;;5074161;28;20584;-73
2022/07/09 08:10:23;;;;;;;10.52;3.75;;;30.50;37.40;;;;;;5074185;28;20028;-71
2022/07/09 08:12:48;;;;;;;6.70;2.13;;;30.30;37.40;;;;;;5072920;28;20043;-71
2022/07/09 08:15:14;;;;;;;2.78;1.13;;;30.20;37.50;;;;;;5073819;28;20040;-74
2022/07/09 08:17:40;;;;;;;4.68;1.10;;;30.20;37.90;;;;;;5072619;28;20025;-73
2022/07/09 08:20:07;;;;;;;5.07;1.23;;;30.00;37.70;;;;;;5073567;28;20331;-73
2022/07/09 08:22:32;;;;;;;4.22;1.10;;;30.00;37.50;;;;;;5074032;28;20020;-73
2022/07/09 08:24:58;;;;;;;1.67;1.02;;;30.00;37.50;;;;;;5073659;28;20032;-71
2022/07/09 08:27:24;;;;;;;4.68;1.35;;;30.00;37.60;;;;;;5074326;28;20115;-72
2022/07/09 08:29:49;;;;;;;5.03;1.10;;;30.00;37.50;;;;;;5073599;28;20478;-71
2022/07/09 08:32:15;;;;;;;12.55;1.65;;;30.00;37.10;;;;;;5073682;28;20074;-71
2022/07/09 08:34:41;;;;;;;7.13;1.25;;;29.90;37.30;;;;;;5073427;28;20024;-71
2022/07/09 08:37:07;;;;;;;5.10;1.20;;;29.90;37.00;;;;;;5073560;28;20021;-72
2022/07/09 08:39:33;;;;;;;3.25;1.17;;;29.80;37.10;;;;;;5073593;28;20017;-73
2022/07/09 08:41:59;;;;;;;2.67;1.10;;;29.70;37.30;;;;;;5073286;28;20078;-70
2022/07/09 08:44:35;;;;;;;4.07;1.08;;;29.70;36.90;;;;;;5071606;28;20447;-73
2022/07/09 08:47:01;;;;;;;6.03;1.40;;;29.50;36.70;;;;;;5071984;28;20034;-74
2022/07/09 08:49:28;;;;;;;5.15;1.20;;;29.50;36.70;;;;;;5072134;28;20062;-71
2022/07/09 08:51:55;;;;;;;7.25;1.20;;;29.50;36.40;;;;;;5071828;28;20032;-72
2022/07/09 08:54:22;;;;;;;1.85;1.00;;;29.50;36.60;;;;;;5073284;28;20034;-73
2022/07/09 08:56:47;;;;;;;5.10;1.23;;;29.40;36.70;;;;;;5073032;28;20016;-71
2022/07/09 08:59:13;;;;;;;2.95;1.13;;;29.40;37.00;;;;;;5073050;28;20032;-74
2022/07/09 09:01:38;;;;;;;5.65;1.48;;;29.40;36.90;;;;;;5072414;28;20074;-71
2022/07/09 09:04:05;;;;;;;2.95;0.90;;;29.40;36.70;;;;;;5073089;28;20028;-74
2022/07/09 09:06:37;;;;;;;1.85;1.08;;;29.30;36.50;;;;;;5072868;28;20180;-72
2022/07/09 09:09:03;;;;;;;2.65;0.85;;;29.30;36.50;;;;;;5071939;28;20024;-73
2022/07/09 09:11:31;;;;;;;4.05;1.10;;;29.30;36.10;;;;;;5072958;28;20032;-73
2022/07/09 09:13:57;;;;;;;3.97;1.20;;;29.30;36.10;;;;;;5071713;28;20086;-73
2022/07/09 09:16:24;;;;;;;3.25;1.17;;;29.40;36.40;;;;;;5072712;28;20131;-72
2022/07/09 09:18:54;;;;;;;3.60;1.20;;;29.50;36.10;;;;;;5073068;28;20106;-72
2022/07/09 09:21:22;;;;;;;2.45;1.05;;;29.60;36.00;;;;;;5072560;28;20051;-73
2022/07/09 09:23:53;;;;;;;1.95;0.93;;;29.60;35.90;;;;;;5072741;28;20085;-72
2022/07/09 09:26:24;;;;;;;3.60;1.27;;;29.70;36.00;;;;;;5072651;28;20041;-73
2022/07/09 09:28:49;;;;;;;3.25;1.10;;;29.60;35.60;;;;;;5072106;28;20031;-72
2022/07/09 09:31:23;;;;;;;4.40;1.10;;;29.60;35.90;;;;;;5072209;28;20115;-72
2022/07/09 09:33:50;;;;;;;5.25;1.00;;;29.60;36.30;;;;;;5072595;28;20032;-72
2022/07/09 09:36:33;;;;;;;2.72;1.08;;;29.60;35.70;;;;;;5072511;28;20079;-71
2022/07/09 09:39:30;;;;;;;4.07;1.17;;;29.70;35.60;;;;;;5071078;28;20027;-72
2022/07/09 09:41:59;;;;;;;7.70;1.58;;;29.70;36.10;;;;;;5072371;28;20040;-71
2022/07/09 09:44:30;;;;;;;2.78;1.15;;;29.80;35.70;;;;;;5072392;28;20036;-72
2022/07/09 09:46:57;;;;;;;1.88;0.70;;;29.80;35.30;;;;;;5072458;28;20246;-71
2022/07/09 09:49:24;;;;;;;1.70;0.90;;;29.80;35.00;;;;;;5074903;28;20031;-72
2022/07/09 09:52:18;;;;;;;3.50;1.10;;;29.80;34.30;;;;;;5073960;28;20040;-72
2022/07/09 09:54:47;;;;;;;3.97;1.05;;;29.80;34.00;;;;;;5072618;28;20028;-72
2022/07/09 09:57:13;;;;;;;2.50;1.15;;;29.90;34.20;;;;;;5072259;28;20016;-72
2022/07/09 09:59:41;;;;;;;2.40;1.10;;;30.00;34.30;;;;;;5072568;28;20032;-71
2022/07/09 10:02:09;;;;;;;3.45;1.00;;;30.00;34.60;;;;;;5070615;28;20424;-71
2022/07/09 10:04:43;;;;;;;1.75;0.85;;;30.10;34.80;;;;;;5071697;28;20029;-72
2022/07/09 10:07:13;;;;;;;8.40;1.27;;;30.10;35.40;;;;;;5071953;28;20040;-72
2022/07/09 10:09:39;;;;;;;3.85;0.90;;;30.00;34.90;;;;;;5072034;28;20020;-70
2022/07/09 10:12:06;;;;;;;3.05;1.00;;;30.10;34.80;;;;;;5072005;28;20025;-72
2022/07/09 10:14:34;;;;;;;3.25;1.23;;;30.10;34.90;;;;;;5075143;28;20021;-72
2022/07/09 10:17:11;;;;;;;2.17;0.98;;;30.10;34.80;;;;;;5076019;28;20049;-72
2022/07/09 10:19:38;;;;;;;5.88;1.35;;;30.10;34.80;;;;;;5074537;28;20024;-73
2022/07/09 10:22:04;;;;;;;2.15;0.98;;;30.10;35.00;;;;;;5075869;28;20028;-72
2022/07/09 10:24:32;;;;;;;2.47;1.00;;;30.10;34.80;;;;;;5075748;28;20025;-72
2022/07/09 10:27:09;;;;;;;2.53;0.88;;;30.20;34.40;;;;;;5075989;28;20029;-72
2022/07/09 10:29:37;;;;;;;3.22;0.98;;;30.10;34.10;;;;;;5074389;28;20431;-71
2022/07/09 10:32:04;;;;;;;2.70;0.90;;;30.20;33.80;;;;;;5075722;28;20107;-72
2022/07/09 10:34:56;;;;;;;3.35;0.88;;;30.20;33.70;;;;;;5075736;28;20024;-72
2022/07/09 10:37:54;;;;;;;3.10;0.80;;;30.20;33.90;;;;;;5075755;28;20028;-71
2022/07/09 10:40:21;;;;;;;5.07;1.20;;;30.20;33.00;;;;;;5042144;28;20116;-73
2022/07/09 10:43:03;;;;;;;7.80;1.20;;;30.30;33.40;;;;;;5075717;28;20027;-73
2022/07/09 10:45:36;;;;;;;3.58;0.90;;;30.40;33.50;;;;;;5074328;28;20059;-75
2022/07/09 10:48:04;;;;;;;4.43;1.10;;;30.30;33.20;;;;;;5075845;28;20462;-75
2022/07/09 10:50:31;;;;;;;2.60;1.08;;;30.30;33.60;;;;;;5075636;28;20424;-74
2022/07/09 10:52:59;;;;;;;1.90;1.05;;;30.30;33.20;;;;;;5075183;28;20037;-72
2022/07/09 10:55:27;;;;;;;3.47;1.20;;;30.40;33.70;;;;;;5075192;28;20040;-74
2022/07/09 10:57:54;;;;;;;9.35;1.95;;;30.50;33.10;;;;;;5075148;28;20021;-72
2022/07/09 11:00:25;;;;;;;2.60;1.08;;;30.70;33.00;;;;;;5075534;28;20099;-73
2022/07/09 11:02:59;;;;;;;6.43;1.13;;;30.70;33.00;;;;;;5075398;28;20028;-71
2022/07/09 11:05:28;;;;;;;2.38;1.00;;;30.70;33.20;;;;;;5075077;28;20175;-74
2022/07/09 11:08:04;;;;;;;1.58;0.82;;;30.80;32.50;;;;;;5075014;28;20024;-72
2022/07/09 11:10:31;;;;;;;4.25;1.75;;;30.70;33.00;;;;;;5075013;28;20024;-73
2022/07/09 11:12:59;;;;;;;3.13;1.30;;;30.80;32.80;;;;;;5074657;28;20064;-72
2022/07/09 11:15:29;;;;;;;1.77;1.02;;;30.80;32.50;;;;;;5074549;28;20123;-72
2022/07/09 11:18:05;;;;;;;2.25;1.00;;;30.90;32.40;;;;;;5074776;28;20048;-73
2022/07/09 11:20:37;;;;;;;1.23;0.90;;;31.00;32.60;;;;;;5074699;28;20025;-73
2022/07/09 11:23:03;;;;;;;5.70;1.10;;;31.00;32.00;;;;;;5074724;28;20033;-72
2022/07/09 11:25:29;;;;;;;2.58;1.00;;;31.00;32.10;;;;;;5074271;28;20424;-72
2022/07/09 11:27:56;;;;;;;3.92;1.10;;;31.10;31.90;;;;;;5074797;28;20025;-73
2022/07/09 11:30:22;;;;;;;3.78;0.90;;;31.10;31.80;;;;;;5074779;28;20020;-73
2022/07/09 11:32:48;;;;;;;2.55;1.20;;;31.20;31.60;;;;;;5074682;28;20107;-73
2022/07/09 11:35:31;;;;;;;3.65;1.58;;;31.20;31.40;;;;;;5074778;28;20477;-74
2022/07/09 11:38:02;;;;;;;4.82;1.42;;;31.20;31.60;;;;;;5074880;28;20016;-73
2022/07/09 11:40:28;;;;;;;4.25;1.40;;;31.30;31.50;;;;;;5074691;28;20047;-73
2022/07/09 11:42:54;;;;;;;1.42;1.10;;;31.40;31.50;;;;;;5073210;28;20474;-72
2022/07/09 11:45:27;;;;;;;3.25;1.30;;;31.50;31.60;;;;;;5074306;28;20039;-72
2022/07/09 11:48:12;;;;;;;1.70;1.00;;;31.60;31.60;;;;;;5073450;28;20017;-73
2022/07/09 11:50:43;;;;;;;5.30;1.30;;;31.60;31.70;;;;;;5074472;28;20484;-71
2022/07/09 11:53:22;;;;;;;5.53;1.42;;;31.60;31.20;;;;;;5074096;28;20044;-72
2022/07/09 11:56:01;;;;;;;2.03;1.15;;;31.70;30.60;;;;;;5074024;28;20054;-71
2022/07/09 11:58:28;;;;;;;3.97;1.10;;;31.70;30.40;;;;;;5072686;28;20025;-71
2022/07/09 12:00:54;;;;;;;3.28;1.13;;;31.70;30.20;;;;;;5073746;28;20016;-71
2022/07/09 12:03:32;;;;;;;3.10;1.40;;;31.70;30.90;;;;;;5074331;28;20033;-72
2022/07/09 12:05:58;;;;;;;4.03;1.00;;;31.70;30.50;;;;;;5073954;28;20485;-72
2022/07/09 12:08:29;;;;;;;5.13;1.40;;;31.80;30.60;;;;;;5073996;28;20031;-72
2022/07/09 12:10:55;;;;;;;2.47;1.00;;;31.90;31.00;;;;;;5073987;28;20128;-73
2022/07/09 12:13:20;;;;;;;2.38;0.95;;;31.90;30.90;;;;;;5072453;28;20480;-73
2022/07/09 12:15:46;;;;;;;1.55;0.90;;;31.90;29.90;;;;;;5073522;28;20064;-71
2022/07/09 12:18:12;;;;;;;3.33;1.10;;;32.00;29.90;;;;;;5073853;28;20029;-73
2022/07/09 12:20:37;;;;;;;3.05;1.10;;;32.00;29.80;;;;;;5073660;28;20487;-73
2022/07/09 12:23:03;;;;;;;3.13;1.30;;;32.10;30.00;;;;;;5073709;28;20016;-73
2022/07/09 12:25:29;;;;;;;5.00;1.50;;;32.10;29.80;;;;;;5073711;28;20028;-73
2022/07/09 12:27:54;;;;;;;3.33;1.38;;;32.20;29.50;;;;;;5073781;28;20024;-73
2022/07/09 12:30:20;;;;;;;5.70;1.40;;;32.30;29.70;;;;;;5073456;28;20063;-74
2022/07/09 12:32:46;;;;;;;5.38;1.40;;;32.30;30.20;;;;;;5073494;28;20035;-73
2022/07/09 12:35:13;;;;;;;4.13;1.48;;;32.30;30.50;;;;;;5072989;28;20035;-74
2022/07/09 12:37:39;;;;;;;4.93;1.13;;;32.40;29.20;;;;;;5073020;28;20016;-74
2022/07/09 12:40:06;;;;;;;2.70;1.23;;;32.50;29.40;;;;;;5073417;28;20055;-75
2022/07/09 12:42:32;;;;;;;3.50;1.10;;;32.60;29.70;;;;;;5072229;28;20024;-73
2022/07/09 12:44:58;;;;;;;4.88;1.23;;;32.60;29.50;;;;;;5073053;28;20040;-73